createdAt,value
2019-01-08T00:00:15.327Z,0.57
2019-01-08T00:02:43.703Z,0.90
2019-01-08T00:05:12.083Z,0.77
2019-01-08T00:07:40.453Z,0.73
2019-01-08T00:10:08.840Z,0.50
2019-01-08T00:12:37.461Z,0.60
2019-01-08T00:15:12.608Z,0.70
2019-01-08T00:17:40.975Z,0.53
2019-01-08T00:20:10.294Z,0.50
2019-01-08T00:22:39.576Z,0.73
2019-01-08T00:25:07.954Z,0.40
2019-01-08T00:27:36.331Z,0.50
2019-01-08T00:30:07.046Z,0.60
2019-01-08T00:32:35.428Z,0.37
2019-01-08T00:35:03.808Z,0.37
2019-01-08T00:37:32.180Z,0.60
2019-01-08T00:40:00.576Z,0.53
2019-01-08T00:42:28.948Z,0.37
2019-01-08T00:44:57.341Z,0.40
2019-01-08T00:47:25.721Z,0.43
2019-01-08T00:49:54.108Z,0.33
2019-01-08T00:52:22.476Z,0.50
2019-01-08T00:54:50.846Z,0.70
2019-01-08T00:57:19.234Z,0.73
2019-01-08T00:59:47.602Z,0.90
2019-01-08T01:02:15.983Z,0.93
2019-01-08T01:04:44.360Z,1.10
2019-01-08T01:07:12.746Z,1.10
2019-01-08T01:09:41.124Z,2.03
2019-01-08T01:12:09.506Z,2.17
2019-01-08T01:14:37.873Z,3.20
2019-01-08T01:17:06.576Z,3.20
2019-01-08T01:19:34.946Z,3.87
2019-01-08T01:22:03.327Z,4.53
2019-01-08T01:24:31.704Z,5.77
2019-01-08T01:27:00.193Z,5.20
2019-01-08T01:29:28.571Z,5.73
2019-01-08T01:31:56.956Z,5.80
2019-01-08T01:34:25.328Z,7.57
2019-01-08T01:36:53.712Z,6.73
2019-01-08T01:39:22.089Z,6.87
2019-01-08T01:41:50.703Z,6.97
2019-01-08T01:44:19.078Z,7.50
2019-01-08T01:46:47.458Z,6.47
2019-01-08T01:49:15.844Z,6.70
2019-01-08T01:51:44.214Z,6.10
2019-01-08T01:54:12.602Z,5.73
2019-01-08T01:56:41.903Z,5.93
2019-01-08T01:59:10.279Z,5.97
2019-01-08T02:01:38.896Z,4.77
2019-01-08T02:04:07.671Z,5.30
2019-01-08T02:06:36.061Z,5.07
2019-01-08T02:09:05.825Z,4.63
2019-01-08T02:11:34.191Z,4.07
2019-01-08T02:14:02.583Z,4.13
2019-01-08T02:16:31.197Z,3.93
2019-01-08T02:18:59.580Z,4.73
2019-01-08T02:21:27.979Z,4.37
2019-01-08T02:23:56.359Z,3.87
2019-01-08T02:26:24.737Z,3.87
2019-01-08T02:28:53.122Z,4.00
2019-01-08T02:31:21.499Z,4.73
2019-01-08T02:33:49.871Z,4.33
2019-01-08T02:36:18.262Z,4.37
2019-01-08T02:38:48.549Z,4.70
2019-01-08T02:41:17.254Z,4.90
2019-01-08T02:43:45.966Z,4.97
2019-01-08T02:46:14.402Z,5.10
2019-01-08T02:48:42.884Z,4.67
2019-01-08T02:51:11.263Z,5.47
2019-01-08T02:53:39.640Z,5.30
2019-01-08T02:56:08.030Z,5.47
2019-01-08T02:58:36.405Z,5.73
2019-01-08T03:18:24.902Z,5.60
2019-01-08T03:20:53.374Z,5.40
2019-01-08T03:23:21.740Z,5.30
2019-01-08T03:25:50.134Z,5.37
2019-01-08T03:35:27.450Z,5.60
2019-01-08T03:37:55.829Z,5.40
2019-01-08T03:40:24.206Z,5.13
2019-01-08T03:42:52.583Z,4.57
2019-01-08T03:45:20.956Z,5.03
2019-01-08T03:47:49.342Z,4.80
2019-01-08T03:50:17.715Z,4.63
2019-01-08T03:52:46.109Z,5.03
2019-01-08T03:55:14.477Z,4.13
2019-01-08T03:57:43.092Z,4.53
2019-01-08T04:00:12.298Z,3.97
2019-01-08T04:02:40.919Z,3.73
2019-01-08T04:05:09.325Z,4.50
2019-01-08T04:11:33.044Z,3.60
2019-01-08T04:14:01.431Z,4.87
2019-01-08T04:16:29.804Z,3.70
2019-01-08T04:18:58.189Z,4.40
2019-01-08T04:39:30.630Z,4.00
2019-01-08T04:41:59.237Z,4.33
2019-01-08T04:44:27.625Z,3.80
2019-01-08T04:46:55.991Z,4.87
2019-01-08T04:49:24.382Z,4.40
2019-01-08T04:51:52.763Z,3.80
2019-01-08T04:54:21.173Z,4.47
2019-01-08T04:56:49.633Z,4.57
2019-01-08T04:59:17.999Z,5.07
2019-01-08T05:01:46.619Z,4.33
2019-01-08T05:04:14.989Z,4.30
2019-01-08T05:06:43.366Z,4.43
2019-01-08T05:09:11.750Z,4.07
2019-01-08T05:11:40.124Z,4.67
2019-01-08T05:14:08.500Z,4.53
2019-01-08T05:16:36.900Z,4.53
2019-01-08T05:19:05.263Z,4.70
2019-01-08T05:21:33.651Z,4.77
2019-01-08T05:24:02.024Z,4.67
2019-01-08T05:26:30.587Z,4.40
2019-01-08T05:28:58.977Z,4.93
2019-01-08T05:31:27.373Z,3.77
2019-01-08T05:33:56.938Z,4.40
2019-01-08T05:36:25.334Z,4.10
2019-01-08T05:38:53.709Z,5.13
2019-01-08T05:41:23.078Z,4.27
2019-01-08T05:43:51.449Z,4.50
2019-01-08T05:46:19.838Z,4.63
2019-01-08T05:48:48.216Z,5.30
2019-01-08T05:51:16.880Z,4.33
2019-01-08T05:53:45.261Z,4.43
2019-01-08T05:56:13.652Z,4.17
2019-01-08T05:58:42.027Z,4.70
2019-01-08T06:01:10.394Z,3.47
2019-01-08T06:03:38.774Z,4.20
2019-01-08T06:06:07.186Z,4.63
2019-01-08T06:08:35.545Z,4.17
2019-01-08T06:11:03.928Z,4.10
2019-01-08T06:13:32.305Z,5.17
2019-01-08T06:16:00.681Z,4.50
2019-01-08T06:18:29.085Z,4.70
2019-01-08T06:20:57.470Z,4.93
2019-01-08T06:23:25.847Z,4.57
2019-01-08T06:25:54.234Z,4.50
2019-01-08T06:28:22.603Z,5.63
2019-01-08T06:30:50.977Z,5.40
2019-01-08T06:33:19.347Z,4.60
2019-01-08T06:35:47.734Z,4.47
2019-01-08T06:38:16.114Z,4.80
2019-01-08T06:40:44.499Z,4.73
2019-01-08T06:43:12.859Z,4.80
2019-01-08T06:45:41.239Z,4.83
2019-01-08T06:48:09.606Z,4.60
2019-01-08T06:50:37.988Z,4.40
2019-01-08T06:53:06.361Z,5.10
2019-01-08T06:55:34.739Z,4.77
2019-01-08T06:58:03.108Z,5.40
2019-01-08T07:00:33.445Z,4.37
2019-01-08T07:03:01.584Z,4.43
2019-01-08T07:05:29.969Z,4.77
2019-01-08T07:07:58.336Z,4.57
2019-01-08T07:10:26.711Z,4.80
2019-01-08T07:12:56.053Z,4.20
2019-01-08T07:15:24.417Z,4.83
2019-01-08T07:17:52.796Z,4.60
2019-01-08T07:20:21.169Z,5.60
2019-01-08T07:22:49.553Z,4.67
2019-01-08T07:25:17.941Z,5.00
2019-01-08T07:27:46.347Z,4.27
2019-01-08T07:30:14.751Z,4.20
2019-01-08T07:32:43.134Z,5.00
2019-01-08T07:35:12.481Z,4.43
2019-01-08T07:38:02.107Z,4.60
2019-01-08T07:40:30.488Z,4.60
2019-01-08T07:42:58.876Z,4.57
2019-01-08T07:45:27.249Z,4.77
2019-01-08T07:47:55.716Z,5.27
2019-01-08T07:50:24.105Z,4.43
2019-01-08T07:52:53.434Z,5.80
2019-01-08T07:55:21.807Z,5.17
2019-01-08T07:57:50.446Z,5.03
2019-01-08T08:00:18.797Z,4.30
2019-01-08T08:02:47.244Z,5.10
2019-01-08T08:05:15.612Z,4.77
2019-01-08T08:07:43.988Z,4.63
2019-01-08T08:10:18.201Z,4.77
2019-01-08T08:12:46.585Z,5.07
2019-01-08T08:15:14.949Z,5.20
2019-01-08T08:17:43.344Z,4.40
2019-01-08T08:20:14.684Z,4.87
2019-01-08T08:22:43.067Z,5.07
2019-01-08T08:25:11.455Z,4.97
2019-01-08T08:27:40.077Z,4.60
2019-01-08T08:30:10.012Z,4.63
2019-01-08T08:32:38.407Z,4.40
2019-01-08T08:35:08.768Z,4.47
2019-01-08T08:37:39.685Z,4.00
2019-01-08T08:40:08.375Z,4.97
2019-01-08T08:42:36.737Z,3.43
2019-01-08T08:45:08.573Z,3.20
2019-01-08T08:47:36.994Z,3.47
2019-01-08T08:50:06.624Z,4.00
2019-01-08T08:52:35.024Z,4.43
2019-01-08T08:55:03.465Z,4.70
2019-01-08T08:57:33.329Z,5.13
2019-01-08T09:00:01.700Z,4.73
2019-01-08T09:02:30.081Z,5.00
2019-01-08T09:04:58.467Z,5.03
2019-01-08T09:07:26.837Z,4.90
2019-01-08T09:09:55.446Z,4.97
2019-01-08T09:12:23.828Z,4.43
2019-01-08T09:14:52.206Z,4.77
2019-01-08T09:17:20.586Z,4.63
2019-01-08T09:19:48.957Z,4.17
2019-01-08T09:22:17.345Z,4.23
2019-01-08T09:24:45.709Z,5.33
2019-01-08T09:27:14.096Z,4.37
2019-01-08T09:29:42.468Z,5.67
2019-01-08T09:32:10.862Z,4.40
2019-01-08T09:34:39.305Z,3.80
2019-01-08T09:37:07.688Z,5.00
2019-01-08T09:39:36.055Z,4.17
2019-01-08T09:42:04.506Z,3.73
2019-01-08T09:44:33.112Z,3.60
2019-01-08T09:47:01.496Z,4.17
2019-01-08T09:49:29.870Z,3.80
2019-01-08T09:51:58.271Z,4.27
2019-01-08T09:54:26.651Z,5.30
2019-01-08T09:56:55.014Z,4.10
2019-01-08T09:59:23.411Z,4.80
2019-01-08T10:01:51.801Z,4.23
2019-01-08T10:04:20.187Z,4.50
2019-01-08T10:06:48.558Z,4.17
2019-01-08T10:09:16.945Z,4.13
2019-01-08T10:11:45.317Z,4.57
2019-01-08T10:14:14.520Z,4.43
2019-01-08T10:16:42.892Z,4.50
2019-01-08T10:19:11.275Z,4.10
2019-01-08T10:21:39.644Z,4.20
2019-01-08T10:24:08.034Z,4.70
2019-01-08T10:26:36.414Z,4.73
2019-01-08T10:29:04.818Z,4.30
2019-01-08T10:31:33.200Z,4.23
2019-01-08T10:34:01.576Z,4.87
2019-01-08T10:36:29.963Z,4.63
2019-01-08T10:38:58.334Z,4.30
2019-01-08T10:41:26.712Z,3.67
2019-01-08T10:43:55.074Z,3.37
2019-01-08T10:46:23.453Z,3.53
2019-01-08T10:48:51.839Z,3.60
2019-01-08T10:51:20.222Z,4.20
2019-01-08T10:53:48.826Z,5.17
2019-01-08T10:56:17.203Z,3.53
2019-01-08T10:58:45.577Z,3.77
2019-01-08T11:01:13.941Z,4.00
2019-01-08T11:03:42.345Z,3.83
2019-01-08T11:06:10.707Z,3.70
2019-01-08T11:08:39.103Z,3.97
2019-01-08T11:11:07.483Z,3.77
2019-01-08T11:13:36.118Z,3.53
2019-01-08T11:16:04.499Z,3.80
2019-01-08T11:18:32.875Z,4.03
2019-01-08T11:21:01.253Z,4.27
2019-01-08T11:23:29.632Z,3.53
2019-01-08T11:25:57.998Z,3.30
2019-01-08T11:28:26.386Z,3.63
2019-01-08T11:30:54.766Z,3.73
2019-01-08T11:33:23.144Z,3.77
2019-01-08T11:35:51.582Z,4.20
2019-01-08T11:38:19.965Z,4.67
2019-01-08T11:40:48.369Z,4.17
2019-01-08T11:43:16.746Z,4.30
2019-01-08T11:45:45.126Z,3.63
2019-01-08T11:48:14.522Z,4.13
2019-01-08T11:50:42.906Z,3.87
2019-01-08T11:53:11.515Z,4.97
2019-01-08T11:55:39.892Z,4.03
2019-01-08T11:58:08.264Z,4.27
2019-01-08T12:00:36.639Z,4.07
2019-01-08T12:03:05.022Z,4.47
2019-01-08T12:05:33.393Z,4.80
2019-01-08T12:08:01.768Z,4.87
2019-01-08T12:10:32.067Z,4.23
2019-01-08T12:13:00.449Z,4.67
2019-01-08T12:15:28.824Z,4.13
2019-01-08T12:17:57.222Z,4.17
2019-01-08T12:20:25.606Z,4.47
2019-01-08T12:22:54.287Z,3.53
2019-01-08T12:25:22.668Z,4.20
2019-01-08T12:27:51.040Z,4.33
2019-01-08T12:30:19.420Z,3.63
2019-01-08T12:32:47.811Z,3.77
2019-01-08T12:35:16.191Z,3.77
2019-01-08T12:37:44.568Z,3.97
2019-01-08T12:40:13.017Z,3.90
2019-01-08T12:42:41.661Z,3.37
2019-01-08T12:45:10.013Z,4.00
2019-01-08T12:47:38.394Z,4.40
2019-01-08T12:50:08.012Z,3.67
2019-01-08T12:52:36.389Z,3.87
2019-01-08T12:55:05.009Z,3.70
2019-01-08T12:57:33.388Z,2.73
2019-01-08T13:00:01.757Z,2.23
2019-01-08T13:02:30.132Z,1.53
2019-01-08T13:04:58.733Z,2.33
2019-01-08T13:07:27.344Z,2.50
2019-01-08T13:09:55.718Z,3.17
2019-01-08T13:12:24.110Z,3.27
2019-01-08T13:14:52.599Z,3.30
2019-01-08T13:17:20.970Z,3.27
2019-01-08T13:19:50.339Z,3.40
2019-01-08T13:22:18.829Z,3.77
2019-01-08T13:24:47.285Z,4.17
2019-01-08T13:27:15.667Z,3.70
2019-01-08T13:29:44.052Z,4.20
2019-01-08T13:32:12.437Z,4.50
2019-01-08T13:34:40.879Z,4.30
2019-01-08T13:37:09.260Z,3.40
2019-01-08T13:39:37.638Z,4.77
2019-01-08T13:42:06.008Z,3.80
2019-01-08T13:44:34.392Z,3.70
2019-01-08T13:47:02.761Z,4.70
2019-01-08T13:49:31.149Z,4.40
2019-01-08T13:51:59.527Z,3.93
2019-01-08T13:54:27.912Z,3.93
2019-01-08T13:56:56.278Z,4.20
2019-01-08T13:59:24.723Z,3.63
2019-01-08T14:01:53.091Z,3.60
2019-01-08T14:04:21.493Z,4.50
2019-01-08T14:06:50.862Z,4.03
2019-01-08T14:09:20.161Z,3.30
2019-01-08T14:11:48.541Z,3.87
2019-01-08T14:14:16.914Z,4.80
2019-01-08T14:16:45.317Z,5.07
2019-01-08T14:19:13.693Z,5.40
2019-01-08T14:21:42.068Z,5.00
2019-01-08T14:24:10.443Z,5.30
2019-01-08T14:26:39.059Z,5.83
2019-01-08T14:29:07.439Z,5.20
2019-01-08T14:31:36.159Z,4.47
2019-01-08T14:34:04.612Z,5.03
2019-01-08T14:36:32.995Z,4.57
2019-01-08T14:39:01.365Z,4.50
2019-01-08T14:41:29.739Z,4.13
2019-01-08T14:43:58.122Z,4.17
2019-01-08T14:46:26.492Z,3.73
2019-01-08T14:48:54.873Z,3.97
2019-01-08T14:51:23.489Z,4.20
2019-01-08T14:53:52.831Z,4.40
2019-01-08T14:56:21.202Z,4.80
2019-01-08T14:58:49.589Z,4.90
2019-01-08T15:01:19.839Z,5.87
2019-01-08T15:03:48.221Z,5.30
2019-01-08T15:06:16.659Z,5.27
2019-01-08T15:08:45.068Z,5.67
2019-01-08T15:11:13.416Z,4.80
2019-01-08T15:13:41.843Z,4.77
2019-01-08T15:16:10.238Z,4.83
2019-01-08T15:18:38.620Z,5.03
2019-01-08T15:21:07.954Z,4.40
2019-01-08T15:23:36.350Z,4.43
2019-01-08T15:26:04.725Z,4.57
2019-01-08T15:28:33.289Z,4.70
2019-01-08T15:31:01.655Z,4.90
2019-01-08T15:33:30.028Z,3.93
2019-01-08T15:35:58.409Z,4.90
2019-01-08T15:38:26.783Z,4.13
2019-01-08T15:40:55.163Z,4.53
2019-01-08T15:43:24.558Z,4.67
2019-01-08T15:45:52.939Z,4.83
2019-01-08T15:48:21.329Z,4.53
2019-01-08T15:50:55.711Z,4.43
2019-01-08T15:53:24.103Z,3.83
2019-01-08T15:55:52.477Z,4.53
2019-01-08T15:58:20.848Z,4.73
2019-01-08T16:00:49.302Z,4.53
2019-01-08T16:03:17.668Z,4.50
2019-01-08T16:05:51.790Z,4.97
2019-01-08T16:08:20.165Z,4.37
2019-01-08T16:10:49.469Z,4.33
2019-01-08T16:13:18.763Z,4.47
2019-01-08T16:15:47.217Z,4.87
2019-01-08T16:18:18.614Z,4.57
2019-01-08T16:20:46.995Z,4.60
2019-01-08T16:23:17.290Z,3.90
2019-01-08T16:25:45.673Z,5.33
2019-01-08T16:28:14.043Z,3.90
2019-01-08T16:30:43.454Z,4.80
2019-01-08T16:33:16.176Z,4.73
2019-01-08T16:35:42.898Z,4.13
2019-01-08T16:38:11.269Z,4.10
2019-01-08T16:40:39.912Z,4.07
2019-01-08T16:43:08.285Z,4.10
2019-01-08T16:45:36.834Z,4.13
2019-01-08T16:48:06.132Z,3.83
2019-01-08T16:50:36.448Z,3.93
2019-01-08T16:53:04.825Z,3.87
2019-01-08T16:55:33.212Z,4.37
2019-01-08T16:58:01.660Z,3.30
2019-01-08T17:00:31.245Z,3.90
2019-01-08T17:02:59.845Z,3.67
2019-01-08T17:05:29.157Z,3.40
2019-01-08T17:07:57.531Z,3.40
2019-01-08T17:10:25.913Z,3.40
2019-01-08T17:13:00.138Z,4.20
2019-01-08T17:15:29.429Z,3.57
2019-01-08T17:17:57.805Z,4.03
2019-01-08T17:20:26.223Z,4.70
2019-01-08T17:22:54.604Z,4.03
2019-01-08T17:25:22.993Z,4.90
2019-01-08T17:27:51.369Z,4.23
2019-01-08T17:30:19.823Z,4.30
2019-01-08T17:32:48.231Z,4.23
2019-01-08T17:35:16.608Z,4.33
2019-01-08T17:37:45.051Z,4.67
2019-01-08T17:40:14.427Z,4.60
2019-01-08T17:42:42.798Z,4.30
2019-01-08T17:45:11.458Z,3.47
2019-01-08T17:47:39.822Z,3.97
2019-01-08T17:50:08.534Z,5.17
2019-01-08T17:52:36.908Z,4.30
2019-01-08T17:55:05.720Z,4.00
2019-01-08T17:57:34.086Z,4.43
2019-01-08T18:00:02.467Z,4.10
2019-01-08T18:02:31.792Z,4.80
2019-01-08T18:05:00.177Z,3.87
2019-01-08T18:07:28.557Z,4.43
2019-01-08T18:09:56.966Z,5.03
2019-01-08T18:12:25.318Z,4.33
2019-01-08T18:14:53.818Z,4.37
2019-01-08T18:17:23.267Z,4.33
2019-01-08T18:19:51.636Z,4.23
2019-01-08T18:22:20.991Z,4.13
2019-01-08T18:24:49.440Z,4.20
2019-01-08T18:27:17.815Z,4.27
2019-01-08T18:29:47.138Z,4.53
2019-01-08T18:32:15.549Z,4.83
2019-01-08T18:34:44.127Z,3.93
2019-01-08T18:37:12.506Z,4.07
2019-01-08T18:39:41.049Z,3.77
2019-01-08T18:42:09.435Z,3.67
2019-01-08T18:44:38.043Z,3.83
2019-01-08T18:47:06.432Z,3.53
2019-01-08T18:49:34.808Z,4.20
2019-01-08T18:52:03.439Z,4.10
2019-01-08T18:54:31.817Z,4.13
2019-01-08T18:57:00.431Z,4.40
2019-01-08T18:59:28.811Z,4.53
2019-01-08T19:01:57.195Z,3.93
2019-01-08T19:04:25.567Z,4.47
2019-01-08T19:06:53.942Z,3.80
2019-01-08T19:09:33.341Z,4.40
2019-01-08T19:12:01.711Z,4.13
2019-01-08T19:14:32.738Z,3.93
2019-01-08T19:17:02.097Z,3.80
2019-01-08T19:19:30.471Z,3.90
2019-01-08T19:22:00.841Z,4.67
2019-01-08T19:24:29.180Z,3.50
2019-01-08T19:26:58.592Z,3.43
2019-01-08T19:29:27.140Z,4.17
2019-01-08T19:31:55.489Z,4.17
2019-01-08T19:34:23.872Z,4.30
2019-01-08T19:36:52.245Z,4.50
2019-01-08T19:39:20.617Z,3.83
2019-01-08T19:41:49.908Z,4.20
2019-01-08T19:44:18.296Z,4.13
2019-01-08T19:46:46.691Z,3.57
2019-01-08T19:49:15.084Z,5.10
2019-01-08T19:51:45.643Z,4.70
2019-01-08T19:54:14.028Z,4.20
2019-01-08T19:56:43.734Z,4.07
2019-01-08T19:59:12.282Z,4.27
2019-01-08T20:01:41.616Z,4.00
2019-01-08T20:04:17.731Z,4.50
2019-01-08T20:06:41.420Z,4.17
2019-01-08T20:09:11.722Z,4.07
2019-01-08T20:11:40.097Z,4.33
2019-01-08T20:14:08.481Z,5.33
2019-01-08T20:16:36.855Z,4.20
2019-01-08T20:19:05.298Z,3.53
2019-01-08T20:21:33.679Z,5.23
2019-01-08T20:24:06.471Z,5.40
2019-01-08T20:26:32.179Z,4.00
2019-01-08T20:29:00.767Z,3.90
2019-01-08T20:31:30.084Z,4.17
2019-01-08T20:33:58.476Z,4.70
2019-01-08T20:36:26.860Z,3.80
2019-01-08T20:38:55.242Z,4.40
2019-01-08T20:41:23.626Z,5.03
2019-01-08T20:43:53.004Z,4.23
2019-01-08T20:46:22.334Z,4.00
2019-01-08T20:48:50.722Z,4.03
2019-01-08T20:51:19.368Z,5.00
2019-01-08T20:53:47.745Z,4.27
2019-01-08T20:56:16.193Z,4.93
2019-01-08T20:58:44.582Z,4.17
2019-01-08T21:01:12.976Z,4.43
2019-01-08T21:03:41.382Z,4.50
2019-01-08T21:06:15.683Z,4.43
2019-01-08T21:08:44.108Z,4.07
2019-01-08T21:11:13.200Z,4.23
2019-01-08T21:13:41.578Z,4.77
2019-01-08T21:16:09.960Z,4.00
2019-01-08T21:18:38.399Z,4.07
2019-01-08T21:21:06.736Z,4.13
2019-01-08T21:23:35.360Z,4.37
2019-01-08T21:26:03.728Z,4.47
2019-01-08T21:28:32.117Z,4.57
2019-01-08T21:31:00.503Z,4.07
2019-01-08T21:33:29.796Z,4.30
2019-01-08T21:35:59.123Z,4.20
2019-01-08T21:38:27.548Z,4.83
2019-01-08T21:40:56.879Z,4.10
2019-01-08T21:43:25.262Z,3.80
2019-01-08T21:45:53.901Z,3.50
2019-01-08T21:48:22.490Z,3.27
2019-01-08T21:50:50.888Z,3.23
2019-01-08T21:53:19.244Z,3.37
2019-01-08T21:55:47.612Z,3.20
2019-01-08T21:58:15.994Z,3.87
2019-01-08T22:00:44.366Z,3.77
2019-01-08T22:03:12.763Z,4.00
2019-01-08T22:05:41.132Z,3.97
2019-01-08T22:08:09.517Z,4.47
2019-01-08T22:10:37.891Z,4.80
2019-01-08T22:13:06.273Z,3.93
2019-01-08T22:15:34.648Z,4.00
2019-01-08T22:18:03.025Z,4.63
2019-01-08T22:20:31.404Z,4.30
2019-01-08T22:22:59.796Z,4.17
2019-01-08T22:25:28.487Z,5.20
2019-01-08T22:27:56.934Z,3.80
2019-01-08T22:30:25.328Z,4.40
2019-01-08T22:32:53.770Z,2.93
2019-01-08T22:35:22.216Z,4.53
2019-01-08T22:37:50.592Z,3.67
2019-01-08T22:40:18.969Z,3.97
2019-01-08T22:42:47.340Z,4.00
2019-01-08T22:45:15.793Z,4.33
2019-01-08T22:47:44.254Z,4.00
2019-01-08T22:50:12.693Z,4.83
2019-01-08T22:52:41.071Z,4.47
2019-01-08T22:55:09.527Z,4.70
2019-01-08T22:57:37.972Z,4.43
2019-01-08T23:00:29.814Z,4.33
2019-01-08T23:02:58.212Z,4.17
2019-01-08T23:05:26.587Z,3.97
2019-01-08T23:07:54.974Z,4.03
2019-01-08T23:10:23.349Z,4.37
2019-01-08T23:12:51.966Z,4.30
2019-01-08T23:15:20.722Z,4.50
2019-01-08T23:17:49.333Z,5.03
2019-01-08T23:20:18.013Z,3.63
2019-01-08T23:22:46.659Z,3.70
2019-01-08T23:25:15.040Z,4.53
2019-01-08T23:27:43.436Z,5.07
2019-01-08T23:30:11.949Z,4.23
2019-01-08T23:32:40.337Z,3.77
2019-01-08T23:35:08.862Z,4.37
2019-01-08T23:37:37.261Z,4.40
2019-01-08T23:40:07.837Z,4.43
2019-01-08T23:42:36.217Z,4.33
2019-01-08T23:45:05.647Z,4.00
2019-01-08T23:47:34.018Z,5.00
2019-01-08T23:50:02.466Z,5.10
2019-01-08T23:52:33.893Z,4.83
2019-01-08T23:55:04.875Z,4.57
2019-01-08T23:57:36.438Z,4.43
